sensor_id;sensor_type;location;lat;lon;timestamp;P1;P2;P0
65556;PMS3003;52200;53.490;14.376;2024-01-15T00:00:37;21.40;11.60;4.80
65556;PMS3003;52200;53.490;14.376;2024-01-15T00:03:06;18.60;10.80;4.00
65556;PMS3003;52200;53.490;14.376;2024-01-15T00:05:32;15.25;7.25;4.00
65556;PMS3003;52200;53.490;14.376;2024-01-15T00:07:57;19.75;9.25;4.00
65556;PMS3003;52200;53.490;14.376;2024-01-15T00:10:23;17.25;8.00;4.75
65556;PMS3003;52200;53.490;14.376;2024-01-15T00:12:48;24.00;11.60;5.80
65556;PMS3003;52200;53.490;14.376;2024-01-15T00:15:14;21.25;12.75;6.50
65556;PMS3003;52200;53.490;14.376;2024-01-15T00:17:40;20.40;10.20;5.00
65556;PMS3003;52200;53.490;14.376;2024-01-15T00:20:06;19.50;11.25;5.00
65556;PMS3003;52200;53.490;14.376;2024-01-15T00:22:32;20.60;10.60;6.20
65556;PMS3003;52200;53.490;14.376;2024-01-15T00:24:57;20.25;11.00;5.50
65556;PMS3003;52200;53.490;14.376;2024-01-15T00:27:23;17.80;8.40;5.00
65556;PMS3003;52200;53.490;14.376;2024-01-15T00:29:49;23.00;8.75;4.75
65556;PMS3003;52200;53.490;14.376;2024-01-15T00:32:16;26.00;11.20;5.00
65556;PMS3003;52200;53.490;14.376;2024-01-15T00:34:42;20.50;8.00;4.00
65556;PMS3003;52200;53.490;14.376;2024-01-15T00:37:07;20.25;8.25;4.50
65556;PMS3003;52200;53.490;14.376;2024-01-15T00:39:33;23.25;11.75;5.00
65556;PMS3003;52200;53.490;14.376;2024-01-15T00:41:58;27.25;14.00;6.50
65556;PMS3003;52200;53.490;14.376;2024-01-15T00:44:23;20.25;8.25;5.00
65556;PMS3003;52200;53.490;14.376;2024-01-15T00:46:49;26.00;13.25;5.00
65556;PMS3003;52200;53.490;14.376;2024-01-15T00:49:15;18.00;8.50;5.00
65556;PMS3003;52200;53.490;14.376;2024-01-15T00:51:41;26.00;11.60;7.00
65556;PMS3003;52200;53.490;14.376;2024-01-15T00:54:06;23.25;14.00;5.00
65556;PMS3003;52200;53.490;14.376;2024-01-15T00:56:32;23.60;11.60;5.40
65556;PMS3003;52200;53.490;14.376;2024-01-15T00:58:58;25.50;9.75;5.00
65556;PMS3003;52200;53.490;14.376;2024-01-15T01:01:23;23.50;11.00;4.50
65556;PMS3003;52200;53.490;14.376;2024-01-15T01:03:48;20.50;9.00;4.50
65556;PMS3003;52200;53.490;14.376;2024-01-15T01:06:14;22.50;10.75;5.50
65556;PMS3003;52200;53.490;14.376;2024-01-15T01:08:39;19.50;11.75;4.25
65556;PMS3003;52200;53.490;14.376;2024-01-15T01:11:05;20.50;10.75;5.50
65556;PMS3003;52200;53.490;14.376;2024-01-15T01:13:32;21.80;10.80;5.40
65556;PMS3003;52200;53.490;14.376;2024-01-15T01:15:58;18.60;9.00;4.20
65556;PMS3003;52200;53.490;14.376;2024-01-15T01:18:23;14.00;7.00;2.00
65556;PMS3003;52200;53.490;14.376;2024-01-15T01:20:48;14.75;4.25;2.00
65556;PMS3003;52200;53.490;14.376;2024-01-15T01:23:14;20.50;5.00;2.00
65556;PMS3003;52200;53.490;14.376;2024-01-15T01:25:39;17.00;4.50;1.00
65556;PMS3003;52200;53.490;14.376;2024-01-15T01:28:05;14.00;4.25;1.00
65556;PMS3003;52200;53.490;14.376;2024-01-15T01:30:30;11.00;4.00;1.00
65556;PMS3003;52200;53.490;14.376;2024-01-15T01:32:56;14.75;7.50;1.00
65556;PMS3003;52200;53.490;14.376;2024-01-15T01:35:21;11.75;4.00;1.00
65556;PMS3003;52200;53.490;14.376;2024-01-15T01:37:47;13.40;4.00;1.00
65556;PMS3003;52200;53.490;14.376;2024-01-15T01:40:13;12.75;4.00;1.00
65556;PMS3003;52200;53.490;14.376;2024-01-15T01:42:38;11.50;2.50;1.00
65556;PMS3003;52200;53.490;14.376;2024-01-15T01:45:04;10.75;2.00;0.00
65556;PMS3003;52200;53.490;14.376;2024-01-15T01:47:30;13.40;2.40;1.00
65556;PMS3003;52200;53.490;14.376;2024-01-15T01:49:56;10.60;2.40;1.00
65556;PMS3003;52200;53.490;14.376;2024-01-15T01:52:21;10.00;1.00;0.00
65556;PMS3003;52200;53.490;14.376;2024-01-15T01:54:47;14.50;4.00;0.00
65556;PMS3003;52200;53.490;14.376;2024-01-15T01:57:13;12.00;2.00;1.00
65556;PMS3003;52200;53.490;14.376;2024-01-15T01:59:40;10.00;1.40;0.00
65556;PMS3003;52200;53.490;14.376;2024-01-15T02:02:06;13.00;4.00;1.00
65556;PMS3003;52200;53.490;14.376;2024-01-15T02:04:31;11.00;3.00;0.00
65556;PMS3003;52200;53.490;14.376;2024-01-15T02:06:59;10.00;1.40;0.00
65556;PMS3003;52200;53.490;14.376;2024-01-15T02:09:25;9.20;1.00;0.00
65556;PMS3003;52200;53.490;14.376;2024-01-15T02:11:50;11.00;1.25;0.00
65556;PMS3003;52200;53.490;14.376;2024-01-15T02:14:16;8.60;0.00;0.00
65556;PMS3003;52200;53.490;14.376;2024-01-15T02:16:42;13.00;0.00;0.00
65556;PMS3003;52200;53.490;14.376;2024-01-15T02:19:14;9.50;0.50;0.00
65556;PMS3003;52200;53.490;14.376;2024-01-15T02:21:40;7.60;0.00;0.00
65556;PMS3003;52200;53.490;14.376;2024-01-15T02:24:05;10.25;0.50;0.00
65556;PMS3003;52200;53.490;14.376;2024-01-15T02:26:31;10.00;2.00;0.00
65556;PMS3003;52200;53.490;14.376;2024-01-15T02:29:00;11.80;1.00;0.00
65556;PMS3003;52200;53.490;14.376;2024-01-15T02:31:26;8.00;0.60;0.00
65556;PMS3003;52200;53.490;14.376;2024-01-15T02:33:52;8.00;1.00;0.00
65556;PMS3003;52200;53.490;14.376;2024-01-15T02:36:17;11.75;1.50;0.00
65556;PMS3003;52200;53.490;14.376;2024-01-15T02:38:43;8.25;0.75;0.00
65556;PMS3003;52200;53.490;14.376;2024-01-15T02:41:08;7.25;0.25;0.00
65556;PMS3003;52200;53.490;14.376;2024-01-15T02:43:33;10.25;0.50;0.00
65556;PMS3003;52200;53.490;14.376;2024-01-15T02:45:59;10.00;0.00;0.00
65556;PMS3003;52200;53.490;14.376;2024-01-15T02:48:24;9.50;0.50;0.00
65556;PMS3003;52200;53.490;14.376;2024-01-15T02:50:50;10.50;2.00;0.00
65556;PMS3003;52200;53.490;14.376;2024-01-15T02:53:15;10.75;1.00;0.00
65556;PMS3003;52200;53.490;14.376;2024-01-15T02:55:41;10.50;1.00;0.00
65556;PMS3003;52200;53.490;14.376;2024-01-15T02:58:06;11.75;0.75;0.00
65556;PMS3003;52200;53.490;14.376;2024-01-15T03:00:32;10.00;0.40;0.00
65556;PMS3003;52200;53.490;14.376;2024-01-15T03:02:58;10.75;1.75;0.00
65556;PMS3003;52200;53.490;14.376;2024-01-15T03:05:23;13.75;1.50;0.00
65556;PMS3003;52200;53.490;14.376;2024-01-15T03:07:48;9.00;1.00;0.00
65556;PMS3003;52200;53.490;14.376;2024-01-15T03:10:14;8.00;0.00;0.00
65556;PMS3003;52200;53.490;14.376;2024-01-15T03:12:40;7.75;0.25;0.00
65556;PMS3003;52200;53.490;14.376;2024-01-15T03:15:05;9.50;1.00;0.00
65556;PMS3003;52200;53.490;14.376;2024-01-15T03:17:31;9.75;0.50;0.00
65556;PMS3003;52200;53.490;14.376;2024-01-15T03:19:56;8.75;1.00;0.00
65556;PMS3003;52200;53.490;14.376;2024-01-15T03:22:22;10.00;1.00;0.00
65556;PMS3003;52200;53.490;14.376;2024-01-15T03:24:47;10.75;0.50;0.00
65556;PMS3003;52200;53.490;14.376;2024-01-15T03:27:12;8.00;0.25;0.00
65556;PMS3003;52200;53.490;14.376;2024-01-15T03:29:39;11.00;1.50;0.00
65556;PMS3003;52200;53.490;14.376;2024-01-15T03:32:05;9.20;0.60;0.00
65556;PMS3003;52200;53.490;14.376;2024-01-15T03:34:30;8.00;0.50;0.00
65556;PMS3003;52200;53.490;14.376;2024-01-15T03:36:56;8.00;1.00;0.00
65556;PMS3003;52200;53.490;14.376;2024-01-15T03:39:21;7.75;0.75;0.00
65556;PMS3003;52200;53.490;14.376;2024-01-15T03:41:46;7.25;0.00;0.00
65556;PMS3003;52200;53.490;14.376;2024-01-15T03:44:12;8.00;1.00;0.00
65556;PMS3003;52200;53.490;14.376;2024-01-15T03:46:37;9.25;0.75;0.00
65556;PMS3003;52200;53.490;14.376;2024-01-15T03:49:03;10.00;0.25;0.00
65556;PMS3003;52200;53.490;14.376;2024-01-15T03:51:28;10.00;1.00;0.00
65556;PMS3003;52200;53.490;14.376;2024-01-15T03:53:54;10.25;1.00;0.00
65556;PMS3003;52200;53.490;14.376;2024-01-15T03:56:19;11.00;1.00;0.00
65556;PMS3003;52200;53.490;14.376;2024-01-15T03:58:44;10.00;1.00;0.00
65556;PMS3003;52200;53.490;14.376;2024-01-15T04:01:10;9.75;1.00;0.00
65556;PMS3003;52200;53.490;14.376;2024-01-15T04:03:36;10.75;1.00;0.00
65556;PMS3003;52200;53.490;14.376;2024-01-15T04:06:02;9.20;0.80;0.00
65556;PMS3003;52200;53.490;14.376;2024-01-15T04:08:28;9.20;0.00;0.00
65556;PMS3003;52200;53.490;14.376;2024-01-15T04:10:53;7.75;0.00;0.00
65556;PMS3003;52200;53.490;14.376;2024-01-15T04:13:20;10.20;1.20;0.00
65556;PMS3003;52200;53.490;14.376;2024-01-15T04:15:45;8.50;1.00;0.00
65556;PMS3003;52200;53.490;14.376;2024-01-15T04:18:11;11.50;1.00;0.00
65556;PMS3003;52200;53.490;14.376;2024-01-15T04:20:36;9.75;1.00;0.00
65556;PMS3003;52200;53.490;14.376;2024-01-15T04:23:01;8.00;0.50;0.00
65556;PMS3003;52200;53.490;14.376;2024-01-15T04:25:27;10.25;1.25;0.00
65556;PMS3003;52200;53.490;14.376;2024-01-15T04:27:52;10.25;0.00;0.00
65556;PMS3003;52200;53.490;14.376;2024-01-15T04:30:18;7.00;0.00;0.00
65556;PMS3003;52200;53.490;14.376;2024-01-15T04:32:43;14.25;1.75;0.00
65556;PMS3003;52200;53.490;14.376;2024-01-15T04:35:09;11.25;1.00;0.25
65556;PMS3003;52200;53.490;14.376;2024-01-15T04:37:34;9.75;1.25;0.00
65556;PMS3003;52200;53.490;14.376;2024-01-15T04:40:00;10.00;1.00;0.00
65556;PMS3003;52200;53.490;14.376;2024-01-15T04:42:25;9.75;1.00;0.00
65556;PMS3003;52200;53.490;14.376;2024-01-15T04:44:51;12.40;1.00;0.00
65556;PMS3003;52200;53.490;14.376;2024-01-15T04:47:16;8.00;1.00;0.00
65556;PMS3003;52200;53.490;14.376;2024-01-15T04:49:42;8.00;1.00;0.00
65556;PMS3003;52200;53.490;14.376;2024-01-15T04:52:08;10.75;0.00;0.00
65556;PMS3003;52200;53.490;14.376;2024-01-15T04:54:35;11.80;1.00;0.00
65556;PMS3003;52200;53.490;14.376;2024-01-15T04:57:01;8.00;1.00;0.00
65556;PMS3003;52200;53.490;14.376;2024-01-15T04:59:27;8.00;0.20;0.00
65556;PMS3003;52200;53.490;14.376;2024-01-15T05:01:53;8.80;1.00;0.00
65556;PMS3003;52200;53.490;14.376;2024-01-15T05:04:18;11.00;1.50;1.00
65556;PMS3003;52200;53.490;14.376;2024-01-15T05:06:43;9.75;1.25;0.00
65556;PMS3003;52200;53.490;14.376;2024-01-15T05:09:09;10.00;1.75;0.00
65556;PMS3003;52200;53.490;14.376;2024-01-15T05:11:34;10.50;1.00;0.00
65556;PMS3003;52200;53.490;14.376;2024-01-15T05:14:00;8.00;0.75;0.00
65556;PMS3003;52200;53.490;14.376;2024-01-15T05:16:25;9.00;0.25;0.00
65556;PMS3003;52200;53.490;14.376;2024-01-15T05:18:50;9.50;0.75;0.00
65556;PMS3003;52200;53.490;14.376;2024-01-15T05:21:16;9.00;0.00;0.00
65556;PMS3003;52200;53.490;14.376;2024-01-15T05:23:41;10.00;2.00;0.00
65556;PMS3003;52200;53.490;14.376;2024-01-15T05:26:07;8.00;0.75;0.00
65556;PMS3003;52200;53.490;14.376;2024-01-15T05:28:34;8.40;0.00;0.00
65556;PMS3003;52200;53.490;14.376;2024-01-15T05:30:59;10.25;0.00;0.00
65556;PMS3003;52200;53.490;14.376;2024-01-15T05:33:25;9.50;0.00;0.00
65556;PMS3003;52200;53.490;14.376;2024-01-15T05:35:50;8.50;1.00;0.00
65556;PMS3003;52200;53.490;14.376;2024-01-15T05:38:16;10.50;1.00;0.00
65556;PMS3003;52200;53.490;14.376;2024-01-15T05:40:42;13.20;1.00;0.00
65556;PMS3003;52200;53.490;14.376;2024-01-15T05:43:08;11.50;0.00;0.00
65556;PMS3003;52200;53.490;14.376;2024-01-15T05:45:34;7.00;0.00;0.00
65556;PMS3003;52200;53.490;14.376;2024-01-15T05:48:00;12.40;0.20;0.00
65556;PMS3003;52200;53.490;14.376;2024-01-15T05:50:26;9.50;1.00;0.00
65556;PMS3003;52200;53.490;14.376;2024-01-15T05:52:51;6.00;0.00;0.00
65556;PMS3003;52200;53.490;14.376;2024-01-15T05:55:17;7.00;0.00;0.00
65556;PMS3003;52200;53.490;14.376;2024-01-15T05:57:43;8.40;0.00;0.00
65556;PMS3003;52200;53.490;14.376;2024-01-15T06:00:09;9.60;0.40;0.00
65556;PMS3003;52200;53.490;14.376;2024-01-15T06:02:36;14.40;2.00;0.00
65556;PMS3003;52200;53.490;14.376;2024-01-15T06:05:02;7.00;0.00;0.00
65556;PMS3003;52200;53.490;14.376;2024-01-15T06:07:28;8.00;1.00;0.00
65556;PMS3003;52200;53.490;14.376;2024-01-15T06:09:53;7.00;0.50;0.00
65556;PMS3003;52200;53.490;14.376;2024-01-15T06:12:19;8.00;1.00;0.00
65556;PMS3003;52200;53.490;14.376;2024-01-15T06:14:44;8.25;0.25;0.00
65556;PMS3003;52200;53.490;14.376;2024-01-15T06:17:10;7.50;0.50;0.00
65556;PMS3003;52200;53.490;14.376;2024-01-15T06:19:35;8.00;1.00;0.00
65556;PMS3003;52200;53.490;14.376;2024-01-15T06:22:01;9.25;1.00;0.00
65556;PMS3003;52200;53.490;14.376;2024-01-15T06:24:27;9.25;0.25;0.00
65556;PMS3003;52200;53.490;14.376;2024-01-15T06:26:52;7.00;0.00;0.00
65556;PMS3003;52200;53.490;14.376;2024-01-15T06:29:18;8.00;1.00;0.00
65556;PMS3003;52200;53.490;14.376;2024-01-15T06:31:43;7.80;0.20;0.00
65556;PMS3003;52200;53.490;14.376;2024-01-15T06:34:09;8.00;0.75;0.00
65556;PMS3003;52200;53.490;14.376;2024-01-15T06:36:34;9.25;1.00;0.00
65556;PMS3003;52200;53.490;14.376;2024-01-15T06:39:00;12.00;1.00;0.00
65556;PMS3003;52200;53.490;14.376;2024-01-15T06:41:25;7.75;1.00;0.00
65556;PMS3003;52200;53.490;14.376;2024-01-15T06:43:51;10.25;0.25;0.00
65556;PMS3003;52200;53.490;14.376;2024-01-15T06:46:20;9.00;0.00;0.00
65556;PMS3003;52200;53.490;14.376;2024-01-15T06:48:46;7.00;0.40;0.00
65556;PMS3003;52200;53.490;14.376;2024-01-15T06:51:11;9.00;0.00;0.00
65556;PMS3003;52200;53.490;14.376;2024-01-15T06:53:37;9.75;0.00;0.00
65556;PMS3003;52200;53.490;14.376;2024-01-15T06:56:02;7.00;0.00;0.00
65556;PMS3003;52200;53.490;14.376;2024-01-15T06:58:28;7.00;0.00;0.00
65556;PMS3003;52200;53.490;14.376;2024-01-15T07:00:55;7.00;0.20;0.00
65556;PMS3003;52200;53.490;14.376;2024-01-15T07:03:21;5.25;0.00;0.00
65556;PMS3003;52200;53.490;14.376;2024-01-15T07:05:46;6.50;0.00;0.00
65556;PMS3003;52200;53.490;14.376;2024-01-15T07:08:12;10.00;0.00;0.00
65556;PMS3003;52200;53.490;14.376;2024-01-15T07:10:37;10.00;1.00;0.00
65556;PMS3003;52200;53.490;14.376;2024-01-15T07:13:03;6.25;0.00;0.00
65556;PMS3003;52200;53.490;14.376;2024-01-15T07:15:30;7.00;0.00;0.00
65556;PMS3003;52200;53.490;14.376;2024-01-15T07:17:55;6.50;0.00;0.00
65556;PMS3003;52200;53.490;14.376;2024-01-15T07:20:21;9.00;0.00;0.00
65556;PMS3003;52200;53.490;14.376;2024-01-15T07:22:47;14.00;0.00;0.00
65556;PMS3003;52200;53.490;14.376;2024-01-15T07:25:12;7.50;0.00;0.00
65556;PMS3003;52200;53.490;14.376;2024-01-15T07:27:38;9.00;0.00;0.00
65556;PMS3003;52200;53.490;14.376;2024-01-15T07:30:03;10.50;1.00;0.00
65556;PMS3003;52200;53.490;14.376;2024-01-15T07:32:31;7.20;0.00;0.00
65556;PMS3003;52200;53.490;14.376;2024-01-15T07:34:57;11.00;0.00;0.00
65556;PMS3003;52200;53.490;14.376;2024-01-15T07:37:24;7.40;0.40;0.00
65556;PMS3003;52200;53.490;14.376;2024-01-15T07:39:49;6.50;0.00;0.00
65556;PMS3003;52200;53.490;14.376;2024-01-15T07:42:15;9.50;0.00;0.00
65556;PMS3003;52200;53.490;14.376;2024-01-15T07:44:41;7.75;0.00;0.00
65556;PMS3003;52200;53.490;14.376;2024-01-15T07:47:06;7.00;0.00;0.00
65556;PMS3003;52200;53.490;14.376;2024-01-15T07:49:33;8.00;1.00;0.00
65556;PMS3003;52200;53.490;14.376;2024-01-15T07:51:59;8.60;0.00;0.00
65556;PMS3003;52200;53.490;14.376;2024-01-15T07:54:25;9.25;0.00;0.00
65556;PMS3003;52200;53.490;14.376;2024-01-15T07:56:57;9.00;0.00;0.00
65556;PMS3003;52200;53.490;14.376;2024-01-15T07:59:26;8.00;0.00;0.00
65556;PMS3003;52200;53.490;14.376;2024-01-15T08:01:52;8.80;0.00;0.00
65556;PMS3003;52200;53.490;14.376;2024-01-15T08:04:18;8.00;0.20;0.00
65556;PMS3003;52200;53.490;14.376;2024-01-15T08:06:44;10.40;1.00;0.00
65556;PMS3003;52200;53.490;14.376;2024-01-15T08:09:10;8.80;0.00;0.00
65556;PMS3003;52200;53.490;14.376;2024-01-15T08:11:36;12.80;2.00;0.80
65556;PMS3003;52200;53.490;14.376;2024-01-15T08:14:04;10.80;0.00;0.00
65556;PMS3003;52200;53.490;14.376;2024-01-15T08:16:29;7.00;0.00;0.00
65556;PMS3003;52200;53.490;14.376;2024-01-15T08:18:55;8.75;0.50;0.00
65556;PMS3003;52200;53.490;14.376;2024-01-15T08:21:21;8.40;0.20;0.00
65556;PMS3003;52200;53.490;14.376;2024-01-15T08:23:47;7.20;0.00;0.00
65556;PMS3003;52200;53.490;14.376;2024-01-15T08:26:12;8.50;1.25;0.00
65556;PMS3003;52200;53.490;14.376;2024-01-15T08:28:38;7.00;0.00;0.00
65556;PMS3003;52200;53.490;14.376;2024-01-15T08:31:03;7.00;0.25;0.00
65556;PMS3003;52200;53.490;14.376;2024-01-15T08:33:29;7.00;0.50;0.00
65556;PMS3003;52200;53.490;14.376;2024-01-15T08:35:54;7.75;0.75;0.00
65556;PMS3003;52200;53.490;14.376;2024-01-15T08:38:20;9.00;1.00;0.00
65556;PMS3003;52200;53.490;14.376;2024-01-15T08:40:46;11.50;0.00;0.00
65556;PMS3003;52200;53.490;14.376;2024-01-15T08:43:11;7.00;0.00;0.00
65556;PMS3003;52200;53.490;14.376;2024-01-15T08:45:37;8.00;0.50;0.00
65556;PMS3003;52200;53.490;14.376;2024-01-15T08:48:03;8.40;0.20;0.00
65556;PMS3003;52200;53.490;14.376;2024-01-15T08:50:29;10.25;1.00;0.00
65556;PMS3003;52200;53.490;14.376;2024-01-15T08:52:54;7.80;0.00;0.00
65556;PMS3003;52200;53.490;14.376;2024-01-15T08:55:20;11.80;0.00;0.00
65556;PMS3003;52200;53.490;14.376;2024-01-15T08:57:47;8.40;0.40;0.00
65556;PMS3003;52200;53.490;14.376;2024-01-15T09:00:13;10.00;0.00;0.00
65556;PMS3003;52200;53.490;14.376;2024-01-15T09:02:39;5.80;0.00;0.00
65556;PMS3003;52200;53.490;14.376;2024-01-15T09:05:05;11.00;1.00;0.00
65556;PMS3003;52200;53.490;14.376;2024-01-15T09:07:31;5.00;0.00;0.00
65556;PMS3003;52200;53.490;14.376;2024-01-15T09:09:57;5.80;0.00;0.00
65556;PMS3003;52200;53.490;14.376;2024-01-15T09:12:24;7.60;0.00;0.00
65556;PMS3003;52200;53.490;14.376;2024-01-15T09:14:50;7.80;0.20;0.00
65556;PMS3003;52200;53.490;14.376;2024-01-15T09:17:15;5.50;0.00;0.00
65556;PMS3003;52200;53.490;14.376;2024-01-15T09:19:41;5.00;0.00;0.00
65556;PMS3003;52200;53.490;14.376;2024-01-15T09:22:07;7.75;0.00;0.00
65556;PMS3003;52200;53.490;14.376;2024-01-15T09:24:32;7.00;0.25;0.00
65556;PMS3003;52200;53.490;14.376;2024-01-15T09:26:58;6.00;0.00;0.00
65556;PMS3003;52200;53.490;14.376;2024-01-15T09:29:23;6.00;0.00;0.00
65556;PMS3003;52200;53.490;14.376;2024-01-15T09:31:49;7.25;0.00;0.00
65556;PMS3003;52200;53.490;14.376;2024-01-15T09:34:15;7.00;0.00;0.00
65556;PMS3003;52200;53.490;14.376;2024-01-15T09:36:41;6.80;0.00;0.00
65556;PMS3003;52200;53.490;14.376;2024-01-15T09:39:08;7.00;0.00;0.00
65556;PMS3003;52200;53.490;14.376;2024-01-15T09:41:37;5.40;0.00;0.00
65556;PMS3003;52200;53.490;14.376;2024-01-15T09:44:03;5.00;0.00;0.00
65556;PMS3003;52200;53.490;14.376;2024-01-15T09:46:30;8.00;0.00;0.00
65556;PMS3003;52200;53.490;14.376;2024-01-15T09:48:57;5.00;0.00;0.00
65556;PMS3003;52200;53.490;14.376;2024-01-15T09:51:23;7.00;0.00;0.00
65556;PMS3003;52200;53.490;14.376;2024-01-15T09:53:50;5.00;0.00;0.00
65556;PMS3003;52200;53.490;14.376;2024-01-15T09:56:15;5.00;0.00;0.00
65556;PMS3003;52200;53.490;14.376;2024-01-15T09:58:41;5.00;0.00;0.00
65556;PMS3003;52200;53.490;14.376;2024-01-15T10:01:07;6.60;0.00;0.00
65556;PMS3003;52200;53.490;14.376;2024-01-15T10:03:34;6.20;0.00;0.00
65556;PMS3003;52200;53.490;14.376;2024-01-15T10:05:59;5.00;0.00;0.00
65556;PMS3003;52200;53.490;14.376;2024-01-15T10:08:25;7.00;0.00;0.00
65556;PMS3003;52200;53.490;14.376;2024-01-15T10:10:50;5.00;0.00;0.00
65556;PMS3003;52200;53.490;14.376;2024-01-15T10:13:16;7.00;0.00;0.00
65556;PMS3003;52200;53.490;14.376;2024-01-15T10:15:45;5.00;0.00;0.00
65556;PMS3003;52200;53.490;14.376;2024-01-15T10:18:12;7.00;0.00;0.00
65556;PMS3003;52200;53.490;14.376;2024-01-15T10:20:39;6.60;0.00;0.00
65556;PMS3003;52200;53.490;14.376;2024-01-15T10:23:05;5.00;0.00;0.00
65556;PMS3003;52200;53.490;14.376;2024-01-15T10:25:30;7.75;0.00;0.00
65556;PMS3003;52200;53.490;14.376;2024-01-15T10:28:03;7.00;0.00;0.00
65556;PMS3003;52200;53.490;14.376;2024-01-15T10:30:29;5.00;0.00;0.00
65556;PMS3003;52200;53.490;14.376;2024-01-15T10:33:02;8.00;0.00;0.00
65556;PMS3003;52200;53.490;14.376;2024-01-15T10:35:32;10.00;1.00;0.00
65556;PMS3003;52200;53.490;14.376;2024-01-15T10:38:00;8.00;0.80;0.00
65556;PMS3003;52200;53.490;14.376;2024-01-15T10:40:26;5.00;0.00;0.00
65556;PMS3003;52200;53.490;14.376;2024-01-15T10:42:52;6.60;0.00;0.00
65556;PMS3003;52200;53.490;14.376;2024-01-15T10:45:18;8.20;0.00;0.00
65556;PMS3003;52200;53.490;14.376;2024-01-15T10:47:44;8.00;0.00;0.00
65556;PMS3003;52200;53.490;14.376;2024-01-15T10:50:11;6.20;0.00;0.00
65556;PMS3003;52200;53.490;14.376;2024-01-15T10:52:37;8.00;0.80;0.00
65556;PMS3003;52200;53.490;14.376;2024-01-15T10:55:05;8.40;0.40;0.00
65556;PMS3003;52200;53.490;14.376;2024-01-15T10:57:33;7.00;0.00;0.00
65556;PMS3003;52200;53.490;14.376;2024-01-15T11:00:00;8.00;0.00;0.00
65556;PMS3003;52200;53.490;14.376;2024-01-15T11:02:29;7.00;0.00;0.00
65556;PMS3003;52200;53.490;14.376;2024-01-15T11:04:55;7.00;0.00;0.00
65556;PMS3003;52200;53.490;14.376;2024-01-15T11:07:21;7.00;0.00;0.00
65556;PMS3003;52200;53.490;14.376;2024-01-15T11:09:50;8.80;0.00;0.00
65556;PMS3003;52200;53.490;14.376;2024-01-15T11:12:16;9.25;1.00;0.00
65556;PMS3003;52200;53.490;14.376;2024-01-15T11:14:49;8.00;0.00;0.00
65556;PMS3003;52200;53.490;14.376;2024-01-15T11:17:15;5.80;0.00;0.00
65556;PMS3003;52200;53.490;14.376;2024-01-15T11:22:10;7.00;0.00;0.00
65556;PMS3003;52200;53.490;14.376;2024-01-15T11:24:56;8.20;0.20;0.00
65556;PMS3003;52200;53.490;14.376;2024-01-15T11:27:44;7.00;0.00;0.00
65556;PMS3003;52200;53.490;14.376;2024-01-15T11:30:18;7.60;0.00;0.00
65556;PMS3003;52200;53.490;14.376;2024-01-15T11:32:45;6.60;0.00;0.00
65556;PMS3003;52200;53.490;14.376;2024-01-15T11:35:11;7.80;0.80;0.00
65556;PMS3003;52200;53.490;14.376;2024-01-15T11:40:24;7.80;0.00;0.00
65556;PMS3003;52200;53.490;14.376;2024-01-15T11:43:02;10.80;0.40;0.00
65556;PMS3003;52200;53.490;14.376;2024-01-15T11:45:29;7.20;0.20;0.00
65556;PMS3003;52200;53.490;14.376;2024-01-15T11:50:24;9.80;0.00;0.00
65556;PMS3003;52200;53.490;14.376;2024-01-15T11:53:02;8.25;0.00;0.00
65556;PMS3003;52200;53.490;14.376;2024-01-15T11:55:34;12.20;1.40;0.00
65556;PMS3003;52200;53.490;14.376;2024-01-15T11:58:01;8.80;1.00;0.00
65556;PMS3003;52200;53.490;14.376;2024-01-15T12:00:39;10.60;1.80;1.00
65556;PMS3003;52200;53.490;14.376;2024-01-15T12:03:09;12.00;4.20;1.40
65556;PMS3003;52200;53.490;14.376;2024-01-15T12:05:36;9.40;1.60;0.00
65556;PMS3003;52200;53.490;14.376;2024-01-15T12:08:02;10.40;0.60;0.00
65556;PMS3003;52200;53.490;14.376;2024-01-15T12:10:28;11.00;1.00;0.00
65556;PMS3003;52200;53.490;14.376;2024-01-15T12:13:04;10.20;1.00;0.00
65556;PMS3003;52200;53.490;14.376;2024-01-15T12:15:31;11.20;1.60;0.80
65556;PMS3003;52200;53.490;14.376;2024-01-15T12:18:01;9.20;0.80;0.40
65556;PMS3003;52200;53.490;14.376;2024-01-15T12:20:28;10.20;2.40;1.00
65556;PMS3003;52200;53.490;14.376;2024-01-15T12:22:55;15.40;5.00;2.80
65556;PMS3003;52200;53.490;14.376;2024-01-15T12:25:21;10.20;2.20;1.00
65556;PMS3003;52200;53.490;14.376;2024-01-15T12:27:47;14.20;4.00;3.80
65556;PMS3003;52200;53.490;14.376;2024-01-15T12:30:13;18.80;9.00;8.60
65556;PMS3003;52200;53.490;14.376;2024-01-15T12:32:40;9.20;1.60;0.80
65556;PMS3003;52200;53.490;14.376;2024-01-15T12:35:07;17.00;9.40;8.00
65556;PMS3003;52200;53.490;14.376;2024-01-15T12:37:34;18.40;10.40;9.80
65556;PMS3003;52200;53.490;14.376;2024-01-15T12:40:00;16.60;5.40;4.20
65556;PMS3003;52200;53.490;14.376;2024-01-15T12:42:27;18.00;10.00;8.60
65556;PMS3003;52200;53.490;14.376;2024-01-15T12:44:54;26.75;19.25;18.50
65556;PMS3003;52200;53.490;14.376;2024-01-15T12:47:21;24.60;17.20;16.00
65556;PMS3003;52200;53.490;14.376;2024-01-15T12:49:47;30.25;22.00;21.25
65556;PMS3003;52200;53.490;14.376;2024-01-15T12:52:18;8.20;0.00;0.00
65556;PMS3003;52200;53.490;14.376;2024-01-15T12:54:46;7.00;0.00;0.00
65556;PMS3003;52200;53.490;14.376;2024-01-15T12:57:12;7.00;0.00;0.00
65556;PMS3003;52200;53.490;14.376;2024-01-15T12:59:38;10.50;2.75;2.00
65556;PMS3003;52200;53.490;14.376;2024-01-15T13:02:03;6.75;0.25;0.00
65556;PMS3003;52200;53.490;14.376;2024-01-15T13:04:29;8.25;1.25;1.25
65556;PMS3003;52200;53.490;14.376;2024-01-15T13:06:54;12.00;2.25;1.25
65556;PMS3003;52200;53.490;14.376;2024-01-15T13:09:20;8.00;1.25;0.00
65556;PMS3003;52200;53.490;14.376;2024-01-15T13:11:45;13.00;4.00;3.50
65556;PMS3003;52200;53.490;14.376;2024-01-15T13:14:12;8.60;1.00;0.00
65556;PMS3003;52200;53.490;14.376;2024-01-15T13:16:41;9.80;1.00;0.00
65556;PMS3003;52200;53.490;14.376;2024-01-15T13:19:07;10.25;0.75;0.00
65556;PMS3003;52200;53.490;14.376;2024-01-15T13:21:34;8.00;1.00;0.00
65556;PMS3003;52200;53.490;14.376;2024-01-15T13:23:59;9.00;0.75;0.00
65556;PMS3003;52200;53.490;14.376;2024-01-15T13:26:27;8.00;0.00;0.00
65556;PMS3003;52200;53.490;14.376;2024-01-15T13:28:52;9.50;1.50;0.00
65556;PMS3003;52200;53.490;14.376;2024-01-15T13:31:18;9.20;0.40;0.00
65556;PMS3003;52200;53.490;14.376;2024-01-15T13:33:44;7.00;0.00;0.00
65556;PMS3003;52200;53.490;14.376;2024-01-15T13:36:09;15.75;3.00;0.00
65556;PMS3003;52200;53.490;14.376;2024-01-15T13:38:36;8.60;1.20;0.00
65556;PMS3003;52200;53.490;14.376;2024-01-15T13:41:03;11.80;0.40;0.00
65556;PMS3003;52200;53.490;14.376;2024-01-15T13:43:29;10.00;1.60;1.00
65556;PMS3003;52200;53.490;14.376;2024-01-15T13:45:56;7.00;0.00;0.00
65556;PMS3003;52200;53.490;14.376;2024-01-15T13:48:21;9.75;0.00;0.00
65556;PMS3003;52200;53.490;14.376;2024-01-15T13:50:46;15.75;3.25;1.00
65556;PMS3003;52200;53.490;14.376;2024-01-15T13:53:12;7.75;0.75;0.00
65556;PMS3003;52200;53.490;14.376;2024-01-15T13:55:37;9.50;1.00;0.00
65556;PMS3003;52200;53.490;14.376;2024-01-15T13:58:03;19.00;5.25;2.00
65556;PMS3003;52200;53.490;14.376;2024-01-15T14:00:31;8.80;1.00;0.00
65556;PMS3003;52200;53.490;14.376;2024-01-15T14:02:57;8.60;1.00;0.00
65556;PMS3003;52200;53.490;14.376;2024-01-15T14:05:22;16.00;5.25;1.00